TimeEDT,TemperatureF,Dew PointF,Humidity,Sea Level PressureIn,VisibilityMPH,Wind Direction,Wind SpeedMPH,Gust SpeedMPH,PrecipitationIn,Events,Conditions,WindDirDegrees,DateUTC
12:53 AM,59.0,55.9,90,29.91,10.0,Calm,Calm,-,N/A,,Partly Cloudy,0,2013-08-28 04:53:00
1:53 AM,61.0,55.9,83,29.89,10.0,Calm,Calm,-,N/A,,Mostly Cloudy,0,2013-08-28 05:53:00
2:53 AM,57.9,55.9,93,29.89,10.0,Calm,Calm,-,N/A,,Mostly Cloudy,0,2013-08-28 06:53:00
3:53 AM,55.0,54.0,96,29.89,10.0,NNW,3.5,-,N/A,,Clear,330,2013-08-28 07:53:00
4:53 AM,57.0,55.0,93,29.89,10.0,NNW,3.5,-,N/A,,Mostly Cloudy,340,2013-08-28 08:53:00
5:53 AM,57.0,55.9,96,29.89,10.0,Calm,Calm,-,N/A,,Overcast,0,2013-08-28 09:53:00
6:46 AM,57.2,55.4,94,29.92,2.5,North,8.1,-,0.02,Rain,Light Rain,10,2013-08-28 10:46:00
6:53 AM,57.0,55.9,96,29.91,2.0,North,6.9,-,0.04,Rain,Rain,10,2013-08-28 10:53:00
7:15 AM,57.2,55.4,94,29.91,4.0,Calm,Calm,-,0.01,Rain,Light Rain,0,2013-08-28 11:15:00
7:53 AM,59.0,57.0,93,29.92,9.0,Calm,Calm,-,0.01,,Overcast,0,2013-08-28 11:53:00
8:53 AM,61.0,60.1,97,29.93,9.0,Calm,Calm,-,N/A,,Partly Cloudy,0,2013-08-28 12:53:00
9:18 AM,62.6,60.8,94,29.94,10.0,Calm,Calm,-,N/A,,Mostly Cloudy,0,2013-08-28 13:18:00
9:53 AM,66.0,60.1,81,29.95,10.0,Calm,Calm,-,N/A,,Mostly Cloudy,0,2013-08-28 13:53:00
10:07 AM,64.4,62.6,94,29.96,10.0,Calm,Calm,-,N/A,,Overcast,0,2013-08-28 14:07:00
10:15 AM,66.2,60.8,83,29.96,10.0,Calm,Calm,-,N/A,,Overcast,0,2013-08-28 14:15:00
10:41 AM,66.2,62.6,88,29.96,10.0,ESE,3.5,-,N/A,,Mostly Cloudy,110,2013-08-28 14:41:00
10:53 AM,66.0,62.1,87,29.95,10.0,East,3.5,-,N/A,,Overcast,80,2013-08-28 14:53:00
11:00 AM,66.2,62.6,88,29.96,10.0,Calm,Calm,-,N/A,,Overcast,0,2013-08-28 15:00:00
11:39 AM,69.8,60.8,73,29.96,10.0,North,3.5,-,N/A,,Overcast,10,2013-08-28 15:39:00
11:53 AM,69.1,61.0,75,29.96,10.0,NE,3.5,-,N/A,,Mostly Cloudy,50,2013-08-28 15:53:00
12:12 PM,69.8,60.8,73,29.96,10.0,Variable,4.6,-,N/A,,Mostly Cloudy,0,2013-08-28 16:12:00
12:53 PM,71.1,61.0,70,29.96,10.0,NE,4.6,-,N/A,,Scattered Clouds,50,2013-08-28 16:53:00
1:53 PM,68.0,61.0,78,29.96,10.0,NNW,12.7,-,0.00,Rain,Light Rain,340,2013-08-28 17:53:00
2:53 PM,64.9,60.1,84,29.97,10.0,North,8.1,-,0.00,,Overcast,360,2013-08-28 18:53:00
3:53 PM,66.0,59.0,78,29.99,10.0,North,12.7,-,N/A,,Mostly Cloudy,360,2013-08-28 19:53:00
4:53 PM,69.1,60.1,73,30.00,10.0,North,8.1,-,N/A,,Partly Cloudy,360,2013-08-28 20:53:00
5:53 PM,69.1,60.1,73,30.01,10.0,North,4.6,-,N/A,,Clear,10,2013-08-28 21:53:00
6:53 PM,66.9,57.9,73,30.03,10.0,NNE,5.8,-,N/A,,Partly Cloudy,30,2013-08-28 22:53:00
7:53 PM,64.0,57.0,78,30.05,10.0,NNE,8.1,-,N/A,,Partly Cloudy,30,2013-08-28 23:53:00
8:53 PM,64.0,57.0,78,30.07,10.0,NE,9.2,-,N/A,,Clear,40,2013-08-29 00:53:00
9:53 PM,61.0,55.9,83,30.09,10.0,ENE,11.5,21.9,N/A,,Scattered Clouds,70,2013-08-29 01:53:00
10:43 PM,60.8,55.4,82,30.12,10.0,ENE,11.5,20.7,N/A,,Overcast,70,2013-08-29 02:43:00
10:53 PM,60.1,55.0,83,30.12,10.0,ENE,11.5,20.7,N/A,,Overcast,60,2013-08-29 02:53:00
11:05 PM,60.8,53.6,77,30.12,10.0,ENE,13.8,21.9,N/A,,Overcast,70,2013-08-29 03:05:00
11:53 PM,57.0,51.1,81,30.12,10.0,ENE,12.7,21.9,N/A,,Scattered Clouds,60,2013-08-29 03:53:00